sensor_id;sensor_type;location;lat;lon;timestamp;pressure;altitude;pressure_sealevel;temperature;humidity
7376;BME280;3728;42.266;24.944;2024-03-07T00:00:12;99586.78;;;9.64;86.44
7376;BME280;3728;42.266;24.944;2024-03-07T00:02:50;99590.16;;;9.65;87.12
7376;BME280;3728;42.266;24.944;2024-03-07T00:05:20;99584.44;;;9.63;86.75
7376;BME280;3728;42.266;24.944;2024-03-07T00:07:51;99580.19;;;9.53;87.36
7376;BME280;3728;42.266;24.944;2024-03-07T00:10:19;99575.84;;;9.49;88.18
7376;BME280;3728;42.266;24.944;2024-03-07T00:12:50;99572.63;;;9.52;88.17
7376;BME280;3728;42.266;24.944;2024-03-07T00:15:17;99578.06;;;9.42;88.65
7376;BME280;3728;42.266;24.944;2024-03-07T00:17:44;99578.72;;;9.34;89.36
7376;BME280;3728;42.266;24.944;2024-03-07T00:20:12;99579.22;;;9.36;89.66
7376;BME280;3728;42.266;24.944;2024-03-07T00:22:46;99583.34;;;9.23;90.49
7376;BME280;3728;42.266;24.944;2024-03-07T00:25:14;99579.78;;;9.19;90.95
7376;BME280;3728;42.266;24.944;2024-03-07T00:27:46;99577.47;;;9.31;91.52
7376;BME280;3728;42.266;24.944;2024-03-07T00:30:14;99571.06;;;9.37;90.60
7376;BME280;3728;42.266;24.944;2024-03-07T00:32:46;99575.25;;;9.25;92.14
7376;BME280;3728;42.266;24.944;2024-03-07T00:35:15;99571.75;;;9.29;92.20
7376;BME280;3728;42.266;24.944;2024-03-07T00:37:43;99571.28;;;9.27;92.81
7376;BME280;3728;42.266;24.944;2024-03-07T00:40:11;99566.22;;;9.31;92.49
7376;BME280;3728;42.266;24.944;2024-03-07T00:42:38;99560.13;;;9.22;93.45
7376;BME280;3728;42.266;24.944;2024-03-07T00:45:06;99560.53;;;9.15;94.81
7376;BME280;3728;42.266;24.944;2024-03-07T00:47:33;99550.56;;;9.17;95.27
7376;BME280;3728;42.266;24.944;2024-03-07T00:50:01;99551.50;;;9.21;95.22
7376;BME280;3728;42.266;24.944;2024-03-07T00:52:31;99557.22;;;9.23;95.47
7376;BME280;3728;42.266;24.944;2024-03-07T00:54:59;99555.38;;;9.24;95.99
7376;BME280;3728;42.266;24.944;2024-03-07T00:57:26;99556.25;;;9.19;96.82
7376;BME280;3728;42.266;24.944;2024-03-07T00:59:54;99556.38;;;9.28;96.07
7376;BME280;3728;42.266;24.944;2024-03-07T01:02:22;99556.94;;;9.25;97.05
7376;BME280;3728;42.266;24.944;2024-03-07T01:04:49;99562.56;;;9.18;97.22
7376;BME280;3728;42.266;24.944;2024-03-07T01:07:17;99561.00;;;9.31;96.48
7376;BME280;3728;42.266;24.944;2024-03-07T01:09:44;99567.69;;;9.37;96.46
7376;BME280;3728;42.266;24.944;2024-03-07T01:12:12;99567.00;;;9.45;94.83
7376;BME280;3728;42.266;24.944;2024-03-07T01:14:39;99564.50;;;9.40;94.98
7376;BME280;3728;42.266;24.944;2024-03-07T01:17:07;99572.31;;;9.40;94.81
7376;BME280;3728;42.266;24.944;2024-03-07T01:19:35;99574.84;;;9.45;93.82
7376;BME280;3728;42.266;24.944;2024-03-07T01:22:04;99570.22;;;9.55;93.37
7376;BME280;3728;42.266;24.944;2024-03-07T01:24:32;99571.47;;;9.58;91.93
7376;BME280;3728;42.266;24.944;2024-03-07T01:27:00;99565.56;;;9.52;91.73
7376;BME280;3728;42.266;24.944;2024-03-07T01:29:28;99563.44;;;9.54;90.70
7376;BME280;3728;42.266;24.944;2024-03-07T01:31:56;99563.72;;;9.53;91.11
7376;BME280;3728;42.266;24.944;2024-03-07T01:34:23;99560.41;;;9.61;90.32
7376;BME280;3728;42.266;24.944;2024-03-07T01:36:50;99561.84;;;9.81;88.69
7376;BME280;3728;42.266;24.944;2024-03-07T01:39:18;99562.16;;;9.79;88.01
7376;BME280;3728;42.266;24.944;2024-03-07T01:41:46;99561.66;;;9.91;87.85
7376;BME280;3728;42.266;24.944;2024-03-07T01:44:14;99564.91;;;9.96;86.44
7376;BME280;3728;42.266;24.944;2024-03-07T01:46:42;99561.81;;;9.94;86.00
7376;BME280;3728;42.266;24.944;2024-03-07T01:49:10;99556.31;;;9.96;86.15
7376;BME280;3728;42.266;24.944;2024-03-07T01:51:38;99554.97;;;9.85;86.07
7376;BME280;3728;42.266;24.944;2024-03-07T01:54:08;99538.53;;;9.84;86.37
7376;BME280;3728;42.266;24.944;2024-03-07T01:56:36;99537.53;;;9.80;86.14
7376;BME280;3728;42.266;24.944;2024-03-07T01:59:05;99532.78;;;9.82;86.69
7376;BME280;3728;42.266;24.944;2024-03-07T02:01:34;99530.41;;;9.72;86.49
7376;BME280;3728;42.266;24.944;2024-03-07T02:04:03;99534.66;;;9.82;86.10
7376;BME280;3728;42.266;24.944;2024-03-07T02:06:32;99540.16;;;9.80;85.60
7376;BME280;3728;42.266;24.944;2024-03-07T02:09:00;99535.53;;;9.77;85.98
7376;BME280;3728;42.266;24.944;2024-03-07T02:11:29;99534.78;;;9.63;85.63
7376;BME280;3728;42.266;24.944;2024-03-07T02:13:57;99535.63;;;9.72;86.19
7376;BME280;3728;42.266;24.944;2024-03-07T02:16:24;99547.53;;;9.78;85.10
7376;BME280;3728;42.266;24.944;2024-03-07T02:18:52;99543.94;;;9.74;84.71
7376;BME280;3728;42.266;24.944;2024-03-07T02:21:21;99544.91;;;9.78;85.23
7376;BME280;3728;42.266;24.944;2024-03-07T02:23:49;99547.84;;;9.63;84.46
7376;BME280;3728;42.266;24.944;2024-03-07T02:26:18;99544.63;;;9.66;84.95
7376;BME280;3728;42.266;24.944;2024-03-07T02:28:45;99551.31;;;9.72;84.59
7376;BME280;3728;42.266;24.944;2024-03-07T02:31:13;99552.41;;;9.57;84.96
7376;BME280;3728;42.266;24.944;2024-03-07T02:33:40;99553.66;;;9.60;84.70
7376;BME280;3728;42.266;24.944;2024-03-07T02:36:08;99561.56;;;9.69;84.56
7376;BME280;3728;42.266;24.944;2024-03-07T02:38:35;99562.56;;;9.59;84.47
7376;BME280;3728;42.266;24.944;2024-03-07T02:41:03;99562.00;;;9.48;85.16
7376;BME280;3728;42.266;24.944;2024-03-07T02:43:30;99562.56;;;9.59;84.91
7376;BME280;3728;42.266;24.944;2024-03-07T02:45:58;99563.63;;;9.58;84.81
7376;BME280;3728;42.266;24.944;2024-03-07T02:48:25;99565.25;;;9.81;82.69
7376;BME280;3728;42.266;24.944;2024-03-07T02:50:53;99564.41;;;9.72;82.92
7376;BME280;3728;42.266;24.944;2024-03-07T02:53:20;99569.03;;;9.75;82.92
7376;BME280;3728;42.266;24.944;2024-03-07T02:55:48;99570.19;;;9.69;83.14
7376;BME280;3728;42.266;24.944;2024-03-07T02:58:16;99570.88;;;9.75;83.43
7376;BME280;3728;42.266;24.944;2024-03-07T03:00:43;99572.53;;;9.84;82.53
7376;BME280;3728;42.266;24.944;2024-03-07T03:03:11;99575.72;;;9.81;82.85
7376;BME280;3728;42.266;24.944;2024-03-07T03:05:38;99576.78;;;9.80;82.34
7376;BME280;3728;42.266;24.944;2024-03-07T03:08:06;99578.91;;;9.78;81.87
7376;BME280;3728;42.266;24.944;2024-03-07T03:10:33;99574.00;;;9.63;83.00
7376;BME280;3728;42.266;24.944;2024-03-07T03:13:01;99570.78;;;9.52;84.42
7376;BME280;3728;42.266;24.944;2024-03-07T03:15:28;99568.56;;;9.59;83.21
7376;BME280;3728;42.266;24.944;2024-03-07T03:17:57;99560.16;;;9.62;83.40
7376;BME280;3728;42.266;24.944;2024-03-07T03:20:28;99570.00;;;9.52;83.95
7376;BME280;3728;42.266;24.944;2024-03-07T03:23:05;99573.88;;;9.54;83.96
7376;BME280;3728;42.266;24.944;2024-03-07T03:25:47;99562.75;;;9.62;83.71
7376;BME280;3728;42.266;24.944;2024-03-07T03:28:16;99555.50;;;9.46;85.26
7376;BME280;3728;42.266;24.944;2024-03-07T03:30:47;99559.66;;;9.47;85.19
7376;BME280;3728;42.266;24.944;2024-03-07T03:33:14;99555.97;;;9.48;86.17
7376;BME280;3728;42.266;24.944;2024-03-07T03:35:42;99554.25;;;9.43;86.16
7376;BME280;3728;42.266;24.944;2024-03-07T03:38:10;99551.44;;;9.53;86.34
7376;BME280;3728;42.266;24.944;2024-03-07T03:40:38;99555.19;;;9.75;83.94
7376;BME280;3728;42.266;24.944;2024-03-07T03:43:05;99548.81;;;9.67;83.83
7376;BME280;3728;42.266;24.944;2024-03-07T03:45:33;99550.16;;;9.64;84.11
7376;BME280;3728;42.266;24.944;2024-03-07T03:48:01;99549.84;;;9.66;84.11
7376;BME280;3728;42.266;24.944;2024-03-07T03:50:29;99550.72;;;9.89;82.37
7376;BME280;3728;42.266;24.944;2024-03-07T03:52:58;99557.31;;;9.86;81.94
7376;BME280;3728;42.266;24.944;2024-03-07T03:55:28;99553.59;;;9.87;82.55
7376;BME280;3728;42.266;24.944;2024-03-07T03:57:55;99546.75;;;9.78;82.31
7376;BME280;3728;42.266;24.944;2024-03-07T04:00:23;99557.88;;;9.83;81.57
7376;BME280;3728;42.266;24.944;2024-03-07T04:02:50;99556.56;;;9.72;81.87
7376;BME280;3728;42.266;24.944;2024-03-07T04:05:20;99560.44;;;9.75;82.40
7376;BME280;3728;42.266;24.944;2024-03-07T04:07:48;99559.16;;;9.72;81.89
7376;BME280;3728;42.266;24.944;2024-03-07T04:10:17;99558.69;;;9.70;81.75
7376;BME280;3728;42.266;24.944;2024-03-07T04:12:45;99561.19;;;9.89;81.36
7376;BME280;3728;42.266;24.944;2024-03-07T04:15:14;99563.03;;;9.75;81.22
7376;BME280;3728;42.266;24.944;2024-03-07T04:17:46;99569.22;;;9.79;80.83
7376;BME280;3728;42.266;24.944;2024-03-07T04:20:15;99574.28;;;9.61;81.87
7376;BME280;3728;42.266;24.944;2024-03-07T04:22:46;99571.88;;;9.51;83.14
7376;BME280;3728;42.266;24.944;2024-03-07T04:25:16;99578.91;;;9.64;81.40
7376;BME280;3728;42.266;24.944;2024-03-07T04:27:44;99578.03;;;9.83;80.51
7376;BME280;3728;42.266;24.944;2024-03-07T04:30:12;99578.25;;;9.59;81.64
7376;BME280;3728;42.266;24.944;2024-03-07T04:32:42;99582.78;;;9.81;81.25
7376;BME280;3728;42.266;24.944;2024-03-07T04:35:10;99572.72;;;9.74;81.23
7376;BME280;3728;42.266;24.944;2024-03-07T04:37:41;99572.44;;;9.62;81.76
7376;BME280;3728;42.266;24.944;2024-03-07T04:40:09;99577.38;;;9.77;80.93
7376;BME280;3728;42.266;24.944;2024-03-07T04:42:46;99580.59;;;9.60;82.24
7376;BME280;3728;42.266;24.944;2024-03-07T04:45:18;99577.66;;;9.62;81.44
7376;BME280;3728;42.266;24.944;2024-03-07T04:47:46;99575.13;;;9.84;80.45
7376;BME280;3728;42.266;24.944;2024-03-07T04:50:15;99580.94;;;9.81;81.31
7376;BME280;3728;42.266;24.944;2024-03-07T04:52:47;99577.06;;;9.79;82.45
7376;BME280;3728;42.266;24.944;2024-03-07T04:55:16;99574.97;;;9.67;82.23
7376;BME280;3728;42.266;24.944;2024-03-07T04:57:44;99577.38;;;9.77;82.11
7376;BME280;3728;42.266;24.944;2024-03-07T05:00:13;99576.63;;;9.63;83.30
7376;BME280;3728;42.266;24.944;2024-03-07T05:02:45;99575.53;;;9.50;84.21
7376;BME280;3728;42.266;24.944;2024-03-07T05:05:13;99577.47;;;9.45;84.55
7376;BME280;3728;42.266;24.944;2024-03-07T05:07:41;99577.75;;;9.57;83.10
7376;BME280;3728;42.266;24.944;2024-03-07T05:10:09;99584.75;;;9.48;83.35
7376;BME280;3728;42.266;24.944;2024-03-07T05:12:37;99577.69;;;9.35;84.59
7376;BME280;3728;42.266;24.944;2024-03-07T05:15:06;99588.63;;;9.37;85.61
7376;BME280;3728;42.266;24.944;2024-03-07T05:17:37;99598.69;;;9.43;85.69
7376;BME280;3728;42.266;24.944;2024-03-07T05:20:07;99590.84;;;9.57;83.45
7376;BME280;3728;42.266;24.944;2024-03-07T05:22:37;99585.59;;;9.57;83.19
7376;BME280;3728;42.266;24.944;2024-03-07T05:25:08;99590.06;;;9.43;84.74
7376;BME280;3728;42.266;24.944;2024-03-07T05:27:43;99594.41;;;9.61;83.12
7376;BME280;3728;42.266;24.944;2024-03-07T05:30:14;99589.69;;;9.63;82.70
7376;BME280;3728;42.266;24.944;2024-03-07T05:32:43;99593.63;;;9.47;84.31
7376;BME280;3728;42.266;24.944;2024-03-07T05:35:10;99586.94;;;9.68;83.88
7376;BME280;3728;42.266;24.944;2024-03-07T05:37:38;99590.84;;;9.57;83.86
7376;BME280;3728;42.266;24.944;2024-03-07T05:40:29;99588.13;;;9.48;84.95
7376;BME280;3728;42.266;24.944;2024-03-07T05:42:56;99588.19;;;9.71;83.31
7376;BME280;3728;42.266;24.944;2024-03-07T05:45:24;99580.56;;;9.47;84.33
7376;BME280;3728;42.266;24.944;2024-03-07T05:47:52;99585.91;;;9.42;85.29
7376;BME280;3728;42.266;24.944;2024-03-07T05:50:19;99589.56;;;9.41;85.63
7376;BME280;3728;42.266;24.944;2024-03-07T05:52:47;99597.81;;;9.34;85.35
7376;BME280;3728;42.266;24.944;2024-03-07T05:55:15;99601.47;;;9.33;85.84
7376;BME280;3728;42.266;24.944;2024-03-07T05:57:44;99596.44;;;9.37;86.66
7376;BME280;3728;42.266;24.944;2024-03-07T06:00:13;99606.31;;;9.40;86.72
7376;BME280;3728;42.266;24.944;2024-03-07T06:02:42;99599.72;;;9.29;87.92
7376;BME280;3728;42.266;24.944;2024-03-07T06:05:10;99596.75;;;9.49;87.09
7376;BME280;3728;42.266;24.944;2024-03-07T06:07:43;99597.81;;;9.48;86.86
7376;BME280;3728;42.266;24.944;2024-03-07T06:10:13;99606.44;;;9.62;87.31
7376;BME280;3728;42.266;24.944;2024-03-07T06:12:43;99607.22;;;9.62;86.41
7376;BME280;3728;42.266;24.944;2024-03-07T06:15:31;99623.06;;;9.66;86.90
7376;BME280;3728;42.266;24.944;2024-03-07T06:17:58;99627.72;;;9.55;87.65
7376;BME280;3728;42.266;24.944;2024-03-07T06:20:26;99636.31;;;9.42;88.85
7376;BME280;3728;42.266;24.944;2024-03-07T06:22:54;99638.44;;;9.40;90.05
7376;BME280;3728;42.266;24.944;2024-03-07T06:25:21;99636.16;;;9.66;88.42
7376;BME280;3728;42.266;24.944;2024-03-07T06:28:13;99648.06;;;9.58;89.83
7376;BME280;3728;42.266;24.944;2024-03-07T06:30:43;99655.53;;;9.65;89.98
7376;BME280;3728;42.266;24.944;2024-03-07T06:33:12;99653.09;;;9.69;90.31
7376;BME280;3728;42.266;24.944;2024-03-07T06:35:40;99643.91;;;9.85;89.13
7376;BME280;3728;42.266;24.944;2024-03-07T06:38:11;99643.63;;;9.86;88.40
7376;BME280;3728;42.266;24.944;2024-03-07T06:40:40;99637.13;;;9.97;87.23
7376;BME280;3728;42.266;24.944;2024-03-07T06:43:09;99647.13;;;9.82;88.13
7376;BME280;3728;42.266;24.944;2024-03-07T06:45:37;99651.09;;;9.79;88.63
7376;BME280;3728;42.266;24.944;2024-03-07T06:48:06;99648.44;;;10.06;88.05
7376;BME280;3728;42.266;24.944;2024-03-07T06:50:35;99644.97;;;9.97;87.24
7376;BME280;3728;42.266;24.944;2024-03-07T06:53:05;99649.91;;;9.99;87.80
7376;BME280;3728;42.266;24.944;2024-03-07T06:55:53;99647.19;;;9.90;86.99
7376;BME280;3728;42.266;24.944;2024-03-07T06:58:20;99662.22;;;10.25;84.07
7376;BME280;3728;42.266;24.944;2024-03-07T07:00:51;99658.84;;;10.11;84.34
7376;BME280;3728;42.266;24.944;2024-03-07T07:03:21;99663.66;;;10.04;85.36
7376;BME280;3728;42.266;24.944;2024-03-07T07:05:50;99666.69;;;9.84;86.63
7376;BME280;3728;42.266;24.944;2024-03-07T07:08:18;99662.88;;;9.90;85.94
7376;BME280;3728;42.266;24.944;2024-03-07T07:10:45;99674.13;;;9.91;86.16
7376;BME280;3728;42.266;24.944;2024-03-07T07:13:13;99668.31;;;10.07;85.17
7376;BME280;3728;42.266;24.944;2024-03-07T07:15:41;99672.00;;;10.06;85.05
7376;BME280;3728;42.266;24.944;2024-03-07T07:18:08;99669.09;;;9.94;86.34
7376;BME280;3728;42.266;24.944;2024-03-07T07:20:38;99677.53;;;9.91;86.31
7376;BME280;3728;42.266;24.944;2024-03-07T07:23:06;99673.06;;;10.05;85.02
7376;BME280;3728;42.266;24.944;2024-03-07T07:25:36;99677.69;;;10.08;84.09
7376;BME280;3728;42.266;24.944;2024-03-07T07:28:04;99661.84;;;9.91;86.00
7376;BME280;3728;42.266;24.944;2024-03-07T07:30:32;99661.91;;;10.00;86.09
7376;BME280;3728;42.266;24.944;2024-03-07T07:33:00;99664.22;;;10.01;86.36
7376;BME280;3728;42.266;24.944;2024-03-07T07:35:28;99661.63;;;10.01;86.94
7376;BME280;3728;42.266;24.944;2024-03-07T07:37:55;99665.50;;;10.17;85.53
7376;BME280;3728;42.266;24.944;2024-03-07T07:40:24;99672.88;;;10.29;84.18
7376;BME280;3728;42.266;24.944;2024-03-07T07:42:55;99677.78;;;10.44;83.17
7376;BME280;3728;42.266;24.944;2024-03-07T07:45:23;99680.41;;;10.44;83.59
7376;BME280;3728;42.266;24.944;2024-03-07T07:47:52;99673.53;;;10.35;83.11
7376;BME280;3728;42.266;24.944;2024-03-07T07:50:22;99668.50;;;10.38;84.14
7376;BME280;3728;42.266;24.944;2024-03-07T07:52:52;99661.53;;;10.34;85.07
7376;BME280;3728;42.266;24.944;2024-03-07T07:55:22;99663.16;;;10.43;84.43
7376;BME280;3728;42.266;24.944;2024-03-07T07:57:52;99672.00;;;10.34;83.30
7376;BME280;3728;42.266;24.944;2024-03-07T08:00:23;99674.25;;;10.26;83.96
7376;BME280;3728;42.266;24.944;2024-03-07T08:02:56;99683.13;;;10.39;83.70
7376;BME280;3728;42.266;24.944;2024-03-07T08:05:32;99682.97;;;10.58;82.55
7376;BME280;3728;42.266;24.944;2024-03-07T08:08:02;99680.72;;;10.43;84.05
7376;BME280;3728;42.266;24.944;2024-03-07T08:10:32;99688.56;;;10.43;83.11
7376;BME280;3728;42.266;24.944;2024-03-07T08:13:02;99696.97;;;10.53;83.70
7376;BME280;3728;42.266;24.944;2024-03-07T08:15:32;99690.09;;;10.44;83.91
7376;BME280;3728;42.266;24.944;2024-03-07T08:18:06;99691.00;;;10.25;85.01
7376;BME280;3728;42.266;24.944;2024-03-07T08:20:39;99698.19;;;10.69;83.45
7376;BME280;3728;42.266;24.944;2024-03-07T08:23:08;99699.19;;;10.60;82.80
7376;BME280;3728;42.266;24.944;2024-03-07T08:25:37;99693.56;;;10.66;82.83
7376;BME280;3728;42.266;24.944;2024-03-07T08:28:07;99702.31;;;10.35;84.39
7376;BME280;3728;42.266;24.944;2024-03-07T08:30:36;99698.66;;;10.36;84.42
7376;BME280;3728;42.266;24.944;2024-03-07T08:33:04;99698.03;;;10.52;84.19
7376;BME280;3728;42.266;24.944;2024-03-07T08:35:33;99698.88;;;10.61;82.92
7376;BME280;3728;42.266;24.944;2024-03-07T08:38:01;99701.34;;;10.44;83.62
7376;BME280;3728;42.266;24.944;2024-03-07T08:40:32;99705.28;;;10.55;83.74
7376;BME280;3728;42.266;24.944;2024-03-07T08:43:02;99709.09;;;10.85;81.80
7376;BME280;3728;42.266;24.944;2024-03-07T08:45:30;99709.53;;;10.78;82.66
7376;BME280;3728;42.266;24.944;2024-03-07T08:48:02;99713.81;;;10.61;83.80
7376;BME280;3728;42.266;24.944;2024-03-07T08:50:37;99717.75;;;10.85;82.17
7376;BME280;3728;42.266;24.944;2024-03-07T08:53:06;99718.88;;;10.57;82.53
7376;BME280;3728;42.266;24.944;2024-03-07T08:55:35;99726.81;;;10.66;83.21
7376;BME280;3728;42.266;24.944;2024-03-07T08:58:08;99726.91;;;10.61;82.69
7376;BME280;3728;42.266;24.944;2024-03-07T09:00:37;99725.75;;;10.53;83.64
7376;BME280;3728;42.266;24.944;2024-03-07T09:03:12;99729.16;;;10.54;83.17
7376;BME280;3728;42.266;24.944;2024-03-07T09:05:41;99723.97;;;10.26;86.19
7376;BME280;3728;42.266;24.944;2024-03-07T09:08:12;99727.66;;;10.25;86.31
7376;BME280;3728;42.266;24.944;2024-03-07T09:10:41;99722.09;;;10.54;83.91
7376;BME280;3728;42.266;24.944;2024-03-07T09:13:09;99716.09;;;10.40;85.15
7376;BME280;3728;42.266;24.944;2024-03-07T09:15:38;99725.88;;;10.35;86.38
7376;BME280;3728;42.266;24.944;2024-03-07T09:18:05;99725.78;;;10.40;86.55
7376;BME280;3728;42.266;24.944;2024-03-07T09:20:35;99723.16;;;10.40;86.87
7376;BME280;3728;42.266;24.944;2024-03-07T09:23:03;99732.88;;;10.53;85.30
7376;BME280;3728;42.266;24.944;2024-03-07T09:25:31;99724.34;;;10.34;87.18
7376;BME280;3728;42.266;24.944;2024-03-07T09:28:00;99729.88;;;10.46;85.54
7376;BME280;3728;42.266;24.944;2024-03-07T09:30:27;99725.31;;;10.38;86.75
7376;BME280;3728;42.266;24.944;2024-03-07T09:32:56;99726.81;;;10.66;86.20
7376;BME280;3728;42.266;24.944;2024-03-07T09:35:23;99723.16;;;10.53;86.64
7376;BME280;3728;42.266;24.944;2024-03-07T09:37:52;99730.34;;;10.48;86.46
7376;BME280;3728;42.266;24.944;2024-03-07T09:40:21;99726.59;;;10.76;84.31
7376;BME280;3728;42.266;24.944;2024-03-07T09:42:54;99727.81;;;10.43;86.70
7376;BME280;3728;42.266;24.944;2024-03-07T09:45:29;99733.63;;;10.89;83.87
7376;BME280;3728;42.266;24.944;2024-03-07T09:47:58;99738.13;;;10.75;84.69
7376;BME280;3728;42.266;24.944;2024-03-07T09:50:30;99741.34;;;10.85;84.04
7376;BME280;3728;42.266;24.944;2024-03-07T09:52:58;99747.94;;;10.83;84.66
7376;BME280;3728;42.266;24.944;2024-03-07T09:55:27;99744.09;;;10.67;84.71
7376;BME280;3728;42.266;24.944;2024-03-07T09:57:55;99744.88;;;10.54;85.67
7376;BME280;3728;42.266;24.944;2024-03-07T10:00:27;99749.44;;;10.35;87.33
7376;BME280;3728;42.266;24.944;2024-03-07T10:03:02;99758.00;;;10.26;87.98
7376;BME280;3728;42.266;24.944;2024-03-07T10:05:34;99750.09;;;10.67;85.67
7376;BME280;3728;42.266;24.944;2024-03-07T10:08:01;99750.50;;;10.61;85.49
7376;BME280;3728;42.266;24.944;2024-03-07T10:10:29;99746.88;;;10.70;84.83
7376;BME280;3728;42.266;24.944;2024-03-07T10:13:00;99755.56;;;10.57;86.39
7376;BME280;3728;42.266;24.944;2024-03-07T10:15:29;99754.28;;;10.55;86.42
7376;BME280;3728;42.266;24.944;2024-03-07T10:17:58;99754.84;;;10.65;84.95
7376;BME280;3728;42.266;24.944;2024-03-07T10:20:28;99753.38;;;10.73;85.31
7376;BME280;3728;42.266;24.944;2024-03-07T10:22:56;99757.38;;;10.57;85.50
7376;BME280;3728;42.266;24.944;2024-03-07T10:25:24;99756.50;;;10.61;85.16
7376;BME280;3728;42.266;24.944;2024-03-07T10:27:56;99765.97;;;10.84;84.58
7376;BME280;3728;42.266;24.944;2024-03-07T10:30:26;99755.94;;;10.64;84.60
7376;BME280;3728;42.266;24.944;2024-03-07T10:32:58;99760.53;;;10.32;87.42
7376;BME280;3728;42.266;24.944;2024-03-07T10:35:29;99769.91;;;10.19;88.45
7376;BME280;3728;42.266;24.944;2024-03-07T10:37:58;99766.66;;;10.08;89.68
7376;BME280;3728;42.266;24.944;2024-03-07T10:40:34;99764.44;;;10.02;90.55
7376;BME280;3728;42.266;24.944;2024-03-07T10:43:09;99768.56;;;10.21;89.69
7376;BME280;3728;42.266;24.944;2024-03-07T10:45:47;99772.31;;;10.15;89.72
7376;BME280;3728;42.266;24.944;2024-03-07T10:48:20;99769.38;;;10.03;90.28
7376;BME280;3728;42.266;24.944;2024-03-07T10:50:59;99772.38;;;10.10;90.99
7376;BME280;3728;42.266;24.944;2024-03-07T10:56:24;99772.63;;;10.90;85.26
7376;BME280;3728;42.266;24.944;2024-03-07T11:01:31;99771.56;;;10.42;88.89
7376;BME280;3728;42.266;24.944;2024-03-07T11:04:03;99764.28;;;10.39;88.32
7376;BME280;3728;42.266;24.944;2024-03-07T11:06:33;99762.91;;;10.69;86.27
7376;BME280;3728;42.266;24.944;2024-03-07T11:09:03;99769.13;;;10.59;87.09
7376;BME280;3728;42.266;24.944;2024-03-07T11:11:39;99769.72;;;10.43;86.99
7376;BME280;3728;42.266;24.944;2024-03-07T11:14:11;99770.47;;;10.29;88.98
7376;BME280;3728;42.266;24.944;2024-03-07T11:16:40;99768.63;;;10.44;88.80
7376;BME280;3728;42.266;24.944;2024-03-07T11:21:49;99769.09;;;10.05;93.02
7376;BME280;3728;42.266;24.944;2024-03-07T11:24:27;99776.31;;;10.26;92.35
7376;BME280;3728;42.266;24.944;2024-03-07T11:26:56;99774.38;;;10.18;93.35
7376;BME280;3728;42.266;24.944;2024-03-07T11:29:48;99780.78;;;10.26;94.45
7376;BME280;3728;42.266;24.944;2024-03-07T11:32:29;99772.81;;;10.31;94.17
7376;BME280;3728;42.266;24.944;2024-03-07T11:34:59;99775.53;;;10.12;95.51
7376;BME280;3728;42.266;24.944;2024-03-07T11:37:39;99771.06;;;10.13;96.50
7376;BME280;3728;42.266;24.944;2024-03-07T11:42:52;99767.22;;;9.78;98.53
7376;BME280;3728;42.266;24.944;2024-03-07T11:45:21;99758.81;;;9.81;99.65
7376;BME280;3728;42.266;24.944;2024-03-07T11:48:00;99755.78;;;9.74;100.00
7376;BME280;3728;42.266;24.944;2024-03-07T11:50:40;99742.72;;;9.88;100.00
7376;BME280;3728;42.266;24.944;2024-03-07T11:53:12;99742.13;;;9.77;100.00
7376;BME280;3728;42.266;24.944;2024-03-07T11:55:40;99739.69;;;9.67;100.00
7376;BME280;3728;42.266;24.944;2024-03-07T12:00:48;99735.97;;;9.54;100.00
7376;BME280;3728;42.266;24.944;2024-03-07T12:03:19;99725.50;;;9.41;100.00
7376;BME280;3728;42.266;24.944;2024-03-07T12:05:52;99725.09;;;9.34;100.00
7376;BME280;3728;42.266;24.944;2024-03-07T12:08:20;99722.47;;;9.34;100.00
7376;BME280;3728;42.266;24.944;2024-03-07T12:11:11;99719.00;;;9.38;100.00
7376;BME280;3728;42.266;24.944;2024-03-07T12:13:43;99708.75;;;9.42;100.00
7376;BME280;3728;42.266;24.944;2024-03-07T12:16:10;99702.66;;;9.46;100.00
7376;BME280;3728;42.266;24.944;2024-03-07T12:18:38;99703.22;;;9.43;100.00
7376;BME280;3728;42.266;24.944;2024-03-07T12:21:05;99696.53;;;9.37;100.00
7376;BME280;3728;42.266;24.944;2024-03-07T12:23:38;99684.16;;;9.43;100.00
7376;BME280;3728;42.266;24.944;2024-03-07T12:26:07;99680.72;;;9.29;100.00
7376;BME280;3728;42.266;24.944;2024-03-07T12:28:37;99673.38;;;9.31;100.00
7376;BME280;3728;42.266;24.944;2024-03-07T12:31:06;99658.56;;;9.26;100.00
7376;BME280;3728;42.266;24.944;2024-03-07T12:33:44;99657.97;;;9.16;100.00
7376;BME280;3728;42.266;24.944;2024-03-07T12:36:20;99651.06;;;9.06;100.00
7376;BME280;3728;42.266;24.944;2024-03-07T12:38:54;99645.22;;;8.95;100.00
7376;BME280;3728;42.266;24.944;2024-03-07T12:41:25;99644.94;;;8.97;100.00
7376;BME280;3728;42.266;24.944;2024-03-07T12:43:53;99632.69;;;9.11;100.00
7376;BME280;3728;42.266;24.944;2024-03-07T12:46:22;99623.22;;;9.15;100.00
7376;BME280;3728;42.266;24.944;2024-03-07T12:48:59;99624.56;;;9.13;100.00
7376;BME280;3728;42.266;24.944;2024-03-07T12:51:27;99619.44;;;9.08;100.00
7376;BME280;3728;42.266;24.944;2024-03-07T12:53:54;99633.09;;;9.18;100.00
7376;BME280;3728;42.266;24.944;2024-03-07T12:56:22;99645.63;;;9.35;100.00
7376;BME280;3728;42.266;24.944;2024-03-07T12:58:51;99663.63;;;9.36;100.00
7376;BME280;3728;42.266;24.944;2024-03-07T13:01:20;99676.72;;;9.63;100.00
7376;BME280;3728;42.266;24.944;2024-03-07T13:03:53;99691.94;;;9.61;100.00
7376;BME280;3728;42.266;24.944;2024-03-07T13:06:23;99706.97;;;9.83;100.00
7376;BME280;3728;42.266;24.944;2024-03-07T13:08:59;99703.78;;;10.00;100.00
7376;BME280;3728;42.266;24.944;2024-03-07T13:11:29;99707.19;;;9.87;100.00
7376;BME280;3728;42.266;24.944;2024-03-07T13:14:00;99715.53;;;10.16;100.00
7376;BME280;3728;42.266;24.944;2024-03-07T13:16:28;99706.56;;;9.76;100.00
7376;BME280;3728;42.266;24.944;2024-03-07T13:18:59;99699.78;;;9.61;100.00
7376;BME280;3728;42.266;24.944;2024-03-07T13:21:34;99696.56;;;9.51;100.00
7376;BME280;3728;42.266;24.944;2024-03-07T13:24:03;99702.16;;;9.44;100.00
7376;BME280;3728;42.266;24.944;2024-03-07T13:26:36;99696.34;;;9.34;100.00
7376;BME280;3728;42.266;24.944;2024-03-07T13:29:06;99684.06;;;9.48;100.00
7376;BME280;3728;42.266;24.944;2024-03-07T13:31:34;99685.72;;;9.57;100.00
7376;BME280;3728;42.266;24.944;2024-03-07T13:34:03;99689.53;;;9.65;100.00
7376;BME280;3728;42.266;24.944;2024-03-07T13:36:32;99680.09;;;9.50;100.00
7376;BME280;3728;42.266;24.944;2024-03-07T13:39:03;99678.38;;;9.73;100.00
7376;BME280;3728;42.266;24.944;2024-03-07T13:41:34;99674.41;;;9.62;100.00
7376;BME280;3728;42.266;24.944;2024-03-07T13:44:02;99678.38;;;9.73;100.00